createdAt,value
2018-11-22T12:17:58.679Z,21.03
2018-11-22T12:20:28.082Z,20.27
2018-11-22T12:22:58.280Z,20.33
2018-11-22T12:25:28.405Z,19.03
2018-11-22T12:27:59.261Z,20.33
2018-11-22T12:30:30.651Z,19.63
2018-11-22T12:33:05.230Z,18.67
2018-11-22T12:35:39.720Z,19.83
2018-11-22T12:38:17.152Z,19.00
2018-11-22T12:40:46.165Z,18.33
2018-11-22T12:43:15.410Z,21.00
2018-11-22T12:45:45.384Z,19.83
2018-11-22T12:48:14.682Z,19.13
2018-11-22T12:50:43.937Z,20.07
2018-11-22T12:53:13.197Z,20.03
2018-11-22T12:55:42.433Z,19.10
2018-11-22T12:58:11.933Z,19.83
2018-11-22T13:00:41.291Z,19.97
2018-11-22T13:03:11.364Z,21.17
2018-11-22T13:05:47.855Z,19.50
2018-11-22T13:08:22.262Z,19.63
2018-11-22T13:10:59.774Z,20.93
2018-11-22T13:13:29.163Z,20.30
2018-11-22T13:15:58.512Z,19.43
2018-11-22T13:21:36.097Z,20.37
2018-11-22T13:24:05.743Z,19.10
2018-11-22T13:26:36.013Z,19.17
2018-11-22T13:29:05.280Z,18.67
2018-11-22T13:31:34.463Z,17.47
2018-11-22T13:34:03.516Z,19.47
2018-11-22T13:36:32.975Z,18.03
2018-11-22T13:39:02.332Z,18.17
2018-11-22T13:41:31.619Z,18.80
2018-11-22T13:44:00.777Z,19.03
2018-11-22T13:46:30.077Z,19.10
2018-11-22T13:48:59.310Z,20.40
2018-11-22T13:51:28.646Z,19.30
2018-11-22T13:53:57.979Z,19.33
2018-11-22T13:56:27.287Z,18.87
2018-11-22T13:58:56.420Z,18.60
2018-11-22T14:01:25.579Z,18.23
2018-11-22T14:03:54.797Z,19.87
2018-11-22T14:06:23.815Z,18.67
2018-11-22T14:08:52.947Z,19.50
2018-11-22T14:11:23.908Z,18.20
2018-11-22T14:14:00.919Z,19.33
2018-11-22T14:16:30.591Z,18.77
2018-11-22T14:19:01.965Z,18.60
2018-11-22T14:21:33.606Z,19.17
2018-11-22T14:24:02.964Z,18.63
2018-11-22T14:26:32.316Z,18.87
2018-11-22T14:29:01.963Z,18.90
2018-11-22T14:31:31.195Z,18.47
2018-11-22T14:34:00.532Z,19.07
2018-11-22T14:36:33.421Z,19.33
2018-11-22T14:39:03.199Z,19.07
2018-11-22T14:41:32.842Z,19.07
2018-11-22T14:44:02.338Z,19.10
2018-11-22T14:46:31.813Z,18.80
2018-11-22T14:49:01.021Z,20.00
2018-11-22T14:51:36.768Z,18.87
2018-11-22T14:54:06.745Z,19.60
2018-11-22T14:56:36.291Z,19.37
2018-11-22T14:59:06.859Z,19.97
2018-11-22T15:01:37.262Z,18.30
2018-11-22T15:04:06.692Z,18.97
2018-11-22T15:06:35.895Z,19.53
2018-11-22T15:09:06.942Z,19.63
2018-11-22T15:11:36.185Z,19.97
2018-11-22T15:14:06.076Z,19.77
2018-11-22T15:16:35.461Z,19.93
2018-11-22T15:19:04.847Z,18.67
2018-11-22T15:21:34.201Z,19.47
2018-11-22T15:24:03.419Z,18.83
2018-11-22T15:26:32.682Z,19.13
2018-11-22T15:29:01.889Z,18.63
2018-11-22T15:31:30.992Z,19.03
2018-11-22T15:34:00.375Z,19.83
2018-11-22T15:36:29.700Z,18.97
2018-11-22T15:38:59.015Z,18.70
2018-11-22T15:41:28.381Z,19.43
2018-11-22T15:43:57.544Z,19.50
2018-11-22T15:46:26.620Z,19.30
2018-11-22T15:48:55.765Z,18.47
2018-11-22T15:51:25.052Z,19.43
2018-11-22T15:53:54.263Z,18.83
2018-11-22T15:56:24.305Z,19.00
2018-11-22T15:58:53.663Z,20.33
2018-11-22T16:01:22.890Z,19.90
2018-11-22T16:03:52.292Z,20.00
2018-11-22T16:06:21.523Z,19.43
2018-11-22T16:08:50.860Z,20.53
2018-11-22T16:11:19.916Z,21.33
2018-11-22T16:13:48.916Z,19.03
2018-11-22T16:16:18.199Z,20.53
2018-11-22T16:18:47.339Z,20.40
2018-11-22T16:21:16.457Z,21.30
2018-11-22T16:23:45.671Z,21.47
2018-11-22T16:26:14.903Z,21.17
2018-11-22T16:28:44.329Z,20.07
2018-11-22T16:31:14.254Z,22.10
2018-11-22T16:33:43.687Z,20.47
2018-11-22T16:36:13.707Z,22.50
2018-11-22T16:38:42.963Z,20.87
2018-11-22T16:41:12.577Z,22.83
2018-11-22T16:43:42.463Z,21.70
2018-11-22T16:46:11.664Z,21.53
2018-11-22T16:48:41.177Z,21.03
2018-11-22T16:51:10.572Z,22.10
2018-11-22T16:53:39.850Z,21.83
2018-11-22T16:56:09.008Z,22.43
2018-11-22T16:58:38.100Z,21.00
2018-11-22T17:01:07.532Z,20.10
2018-11-22T17:03:37.132Z,21.87
2018-11-22T17:06:06.638Z,20.13
2018-11-22T17:08:35.890Z,22.50
2018-11-22T17:11:05.084Z,21.43
2018-11-22T17:13:34.710Z,22.93
2018-11-22T17:16:03.937Z,21.77
2018-11-22T17:18:33.283Z,21.97
2018-11-22T17:21:02.524Z,21.07
2018-11-22T17:23:32.242Z,21.43
2018-11-22T17:26:01.461Z,22.17
2018-11-22T17:28:30.727Z,20.57
2018-11-22T17:30:59.965Z,20.97
2018-11-22T17:33:29.281Z,20.17
2018-11-22T17:35:58.405Z,20.03
2018-11-22T17:38:27.552Z,20.00
2018-11-22T17:40:56.688Z,20.07
2018-11-22T17:43:25.768Z,22.07
2018-11-22T17:45:54.865Z,19.37
2018-11-22T17:48:23.946Z,20.57
2018-11-22T17:50:53.511Z,21.50
2018-11-22T17:53:22.546Z,18.33
2018-11-22T17:55:51.818Z,21.17
2018-11-22T17:58:21.253Z,21.57
2018-11-22T18:00:52.606Z,19.87
2018-11-22T18:03:22.003Z,20.37
2018-11-22T18:05:51.450Z,21.60
2018-11-22T18:08:20.820Z,22.00
2018-11-22T18:10:49.726Z,22.03
2018-11-22T18:13:18.883Z,22.93
2018-11-22T18:15:54.108Z,21.30
2018-11-22T18:18:23.998Z,22.07
2018-11-22T18:20:53.176Z,21.47
2018-11-22T18:23:22.294Z,22.43
2018-11-22T18:25:51.466Z,21.23
2018-11-22T18:28:20.770Z,20.63
2018-11-22T18:30:49.908Z,22.30
2018-11-22T18:33:18.940Z,20.80
2018-11-22T18:35:48.125Z,20.83
2018-11-22T18:38:17.114Z,21.60
2018-11-22T18:40:46.305Z,20.93
2018-11-22T18:43:15.717Z,22.07
2018-11-22T18:45:45.884Z,21.57
2018-11-22T18:48:16.308Z,21.23
2018-11-22T18:50:46.949Z,20.43
2018-11-22T18:53:15.190Z,21.50
2018-11-22T18:55:44.361Z,21.67
2018-11-22T18:58:13.532Z,22.67
2018-11-22T19:00:44.206Z,21.63
2018-11-22T19:03:14.966Z,22.27
2018-11-22T19:05:44.211Z,21.87
2018-11-22T19:08:13.296Z,21.20
2018-11-22T19:10:43.349Z,20.83
2018-11-22T19:13:13.263Z,21.90
2018-11-22T19:15:44.034Z,21.10
2018-11-22T19:18:13.819Z,22.07
2018-11-22T19:20:43.708Z,22.30
2018-11-22T19:23:13.149Z,23.13
2018-11-22T19:25:42.295Z,23.07
2018-11-22T19:28:11.527Z,21.73
2018-11-22T19:30:42.117Z,21.73
2018-11-22T19:33:12.825Z,20.33
2018-11-22T19:35:43.482Z,21.77
2018-11-22T19:38:12.684Z,21.17
2018-11-22T19:40:42.601Z,19.17
2018-11-22T19:43:11.955Z,22.03
2018-11-22T19:45:42.491Z,23.50
2018-11-22T19:48:11.697Z,19.97
2018-11-22T19:50:40.882Z,20.43
2018-11-22T19:53:11.576Z,22.40
2018-11-22T19:55:41.090Z,21.83
2018-11-22T19:58:11.583Z,18.23
2018-11-22T20:00:40.640Z,22.13
2018-11-22T20:03:10.165Z,24.03
2018-11-22T20:05:41.266Z,22.23
2018-11-22T20:08:12.216Z,22.37
2018-11-22T20:10:42.640Z,22.90
2018-11-22T20:13:11.907Z,23.83
2018-11-22T20:15:40.974Z,22.37
2018-11-22T20:18:16.639Z,22.53
2018-11-22T20:20:50.031Z,23.97
2018-11-22T20:23:21.254Z,22.40
2018-11-22T20:25:44.330Z,23.60
2018-11-22T20:28:13.573Z,22.27
2018-11-22T20:30:44.281Z,23.47
2018-11-22T20:33:13.277Z,22.40
2018-11-22T20:35:42.548Z,23.07
2018-11-22T20:38:12.842Z,24.03
2018-11-22T20:40:41.848Z,22.77
2018-11-22T20:43:10.943Z,23.27
2018-11-22T20:45:40.925Z,23.90
2018-11-22T20:48:09.166Z,23.57
2018-11-22T20:50:38.648Z,21.80
2018-11-22T20:53:07.847Z,23.70
2018-11-22T20:55:38.121Z,23.47
2018-11-22T20:58:07.808Z,24.50
2018-11-22T21:00:39.699Z,22.83
2018-11-22T21:03:08.787Z,22.23
2018-11-22T21:05:37.834Z,23.43
2018-11-22T21:08:07.591Z,23.27
2018-11-22T21:10:36.809Z,22.97
2018-11-22T21:13:06.110Z,22.23
2018-11-22T21:15:36.119Z,22.87
2018-11-22T21:18:06.483Z,21.87
2018-11-22T21:20:38.041Z,21.37
2018-11-22T21:23:07.167Z,21.37
2018-11-22T21:25:36.243Z,23.73
2018-11-22T21:28:05.850Z,23.30
2018-11-22T21:30:36.285Z,22.53
2018-11-22T21:33:05.458Z,23.17
2018-11-22T21:35:35.003Z,22.63
2018-11-22T21:38:05.953Z,22.87
2018-11-22T21:40:35.348Z,22.77
2018-11-22T21:43:04.562Z,22.23
2018-11-22T21:45:35.339Z,22.63
2018-11-22T21:48:04.340Z,23.17
2018-11-22T21:50:33.373Z,24.03
2018-11-22T21:53:02.484Z,23.53
2018-11-22T21:55:31.644Z,23.17
2018-11-22T21:58:01.846Z,22.30
2018-11-22T22:00:35.861Z,22.97
2018-11-22T22:03:06.574Z,22.37
2018-11-22T22:05:36.075Z,22.13
2018-11-22T22:08:05.127Z,23.20
2018-11-22T22:10:34.251Z,23.30
2018-11-22T22:13:03.791Z,21.77
2018-11-22T22:15:33.932Z,22.37
2018-11-22T22:18:03.039Z,22.67
2018-11-22T22:20:33.605Z,22.77
2018-11-22T22:23:02.844Z,21.50
2018-11-22T22:25:32.485Z,23.10
2018-11-22T22:28:01.963Z,21.77
2018-11-22T22:30:33.398Z,21.97
2018-11-22T22:33:05.069Z,22.90
2018-11-22T22:35:34.249Z,23.23
2018-11-22T22:38:03.523Z,22.33
2018-11-22T22:40:33.723Z,23.67
2018-11-22T22:43:02.762Z,22.83
2018-11-22T22:45:33.210Z,22.70
2018-11-22T22:48:02.569Z,22.80
2018-11-22T22:50:32.243Z,22.80
2018-11-22T22:53:02.008Z,22.97
2018-11-22T22:55:31.446Z,23.40
2018-11-22T22:58:00.762Z,22.00
2018-11-22T23:00:35.139Z,21.60
2018-11-22T23:03:06.951Z,21.57
2018-11-22T23:05:36.525Z,20.53
2018-11-22T23:08:05.803Z,22.40
2018-11-22T23:10:34.843Z,22.20
2018-11-22T23:13:03.884Z,20.70
2018-11-22T23:15:33.166Z,21.33
2018-11-22T23:18:02.161Z,18.57
2018-11-22T23:20:32.621Z,20.17
2018-11-22T23:23:01.887Z,23.03
2018-11-22T23:25:31.574Z,21.13
2018-11-22T23:28:00.767Z,22.37
2018-11-22T23:30:31.329Z,20.33
2018-11-22T23:33:02.550Z,21.20
2018-11-22T23:35:31.561Z,21.33
2018-11-22T23:38:00.679Z,21.80
2018-11-22T23:40:31.204Z,20.90
2018-11-22T23:43:00.199Z,21.53
2018-11-22T23:45:30.569Z,20.90
2018-11-22T23:48:00.592Z,20.77
2018-11-22T23:50:31.723Z,20.90
2018-11-22T23:53:01.614Z,21.30
2018-11-22T23:55:30.979Z,22.00
2018-11-22T23:57:59.922Z,21.03
